sensor_id;sensor_type;location;lat;lon;timestamp;temperature;humidity
47961;DHT22;33721;48.852;9.936;2022-10-13T00:00:54;7.30;99.90
47961;DHT22;33721;48.852;9.936;2022-10-13T00:03:20;7.20;99.90
47961;DHT22;33721;48.852;9.936;2022-10-13T00:05:48;7.10;99.90
47961;DHT22;33721;48.852;9.936;2022-10-13T00:08:16;7.00;99.90
47961;DHT22;33721;48.852;9.936;2022-10-13T00:10:47;6.90;99.90
47961;DHT22;33721;48.852;9.936;2022-10-13T00:13:14;7.00;99.90
47961;DHT22;33721;48.852;9.936;2022-10-13T00:15:42;7.00;99.90
47961;DHT22;33721;48.852;9.936;2022-10-13T00:18:08;7.10;99.90
47961;DHT22;33721;48.852;9.936;2022-10-13T00:20:34;7.10;99.90
47961;DHT22;33721;48.852;9.936;2022-10-13T00:23:00;7.00;99.90
47961;DHT22;33721;48.852;9.936;2022-10-13T00:25:26;6.90;99.90
47961;DHT22;33721;48.852;9.936;2022-10-13T00:27:52;6.90;99.90
47961;DHT22;33721;48.852;9.936;2022-10-13T00:30:17;6.80;99.90
47961;DHT22;33721;48.852;9.936;2022-10-13T00:32:43;6.80;99.90
47961;DHT22;33721;48.852;9.936;2022-10-13T00:35:09;6.90;99.90
47961;DHT22;33721;48.852;9.936;2022-10-13T00:37:35;6.90;99.90
47961;DHT22;33721;48.852;9.936;2022-10-13T00:40:00;6.90;99.90
47961;DHT22;33721;48.852;9.936;2022-10-13T00:42:26;6.90;99.90
47961;DHT22;33721;48.852;9.936;2022-10-13T00:47:25;6.90;99.90
47961;DHT22;33721;48.852;9.936;2022-10-13T00:49:53;6.90;99.90
47961;DHT22;33721;48.852;9.936;2022-10-13T00:52:20;6.90;99.90
47961;DHT22;33721;48.852;9.936;2022-10-13T00:54:47;6.90;99.90
47961;DHT22;33721;48.852;9.936;2022-10-13T00:57:14;6.90;99.90
47961;DHT22;33721;48.852;9.936;2022-10-13T00:59:40;6.90;99.90
47961;DHT22;33721;48.852;9.936;2022-10-13T01:02:06;6.90;99.90
47961;DHT22;33721;48.852;9.936;2022-10-13T01:04:44;6.90;99.90
47961;DHT22;33721;48.852;9.936;2022-10-13T01:07:11;7.00;99.90
47961;DHT22;33721;48.852;9.936;2022-10-13T01:09:37;6.90;99.90
47961;DHT22;33721;48.852;9.936;2022-10-13T01:15:11;6.90;99.90
47961;DHT22;33721;48.852;9.936;2022-10-13T01:23:53;6.90;99.90
47961;DHT22;33721;48.852;9.936;2022-10-13T01:31:59;6.80;99.90
47961;DHT22;33721;48.852;9.936;2022-10-13T01:34:34;6.80;99.90
47961;DHT22;33721;48.852;9.936;2022-10-13T01:39:42;6.80;99.90
47961;DHT22;33721;48.852;9.936;2022-10-13T01:42:22;6.80;99.90
47961;DHT22;33721;48.852;9.936;2022-10-13T01:44:59;6.80;99.90
47961;DHT22;33721;48.852;9.936;2022-10-13T01:47:27;6.90;99.90
47961;DHT22;33721;48.852;9.936;2022-10-13T01:49:55;6.90;99.90
47961;DHT22;33721;48.852;9.936;2022-10-13T01:52:24;7.00;99.90
47961;DHT22;33721;48.852;9.936;2022-10-13T01:54:51;7.10;99.90
47961;DHT22;33721;48.852;9.936;2022-10-13T02:00:07;7.10;99.90
47961;DHT22;33721;48.852;9.936;2022-10-13T02:05:44;7.00;99.90
47961;DHT22;33721;48.852;9.936;2022-10-13T02:13:35;6.90;99.90
47961;DHT22;33721;48.852;9.936;2022-10-13T02:16:02;6.90;99.90
47961;DHT22;33721;48.852;9.936;2022-10-13T02:18:31;6.90;99.90
47961;DHT22;33721;48.852;9.936;2022-10-13T02:20:58;6.90;99.90
47961;DHT22;33721;48.852;9.936;2022-10-13T02:23:24;6.90;99.90
47961;DHT22;33721;48.852;9.936;2022-10-13T02:25:50;6.90;99.90
47961;DHT22;33721;48.852;9.936;2022-10-13T02:28:16;6.90;99.90
47961;DHT22;33721;48.852;9.936;2022-10-13T02:30:43;6.90;99.90
47961;DHT22;33721;48.852;9.936;2022-10-13T02:33:11;6.90;99.90
47961;DHT22;33721;48.852;9.936;2022-10-13T02:35:37;6.80;99.90
47961;DHT22;33721;48.852;9.936;2022-10-13T02:38:03;6.80;99.90
47961;DHT22;33721;48.852;9.936;2022-10-13T02:40:29;6.80;99.90
47961;DHT22;33721;48.852;9.936;2022-10-13T02:42:55;6.70;99.90
47961;DHT22;33721;48.852;9.936;2022-10-13T02:45:21;6.70;99.90
47961;DHT22;33721;48.852;9.936;2022-10-13T02:47:47;6.70;99.90
47961;DHT22;33721;48.852;9.936;2022-10-13T02:50:13;6.70;99.90
47961;DHT22;33721;48.852;9.936;2022-10-13T02:52:38;6.70;99.90
47961;DHT22;33721;48.852;9.936;2022-10-13T02:55:05;6.60;99.90
47961;DHT22;33721;48.852;9.936;2022-10-13T02:57:30;6.50;99.90
47961;DHT22;33721;48.852;9.936;2022-10-13T02:59:56;6.50;99.90
47961;DHT22;33721;48.852;9.936;2022-10-13T03:02:22;6.50;99.90
47961;DHT22;33721;48.852;9.936;2022-10-13T03:04:48;6.60;99.90
47961;DHT22;33721;48.852;9.936;2022-10-13T03:07:14;6.60;99.90
47961;DHT22;33721;48.852;9.936;2022-10-13T03:09:40;6.60;99.90
47961;DHT22;33721;48.852;9.936;2022-10-13T03:12:06;6.60;99.90
47961;DHT22;33721;48.852;9.936;2022-10-13T03:14:32;6.60;99.90
47961;DHT22;33721;48.852;9.936;2022-10-13T03:16:57;6.60;99.90
47961;DHT22;33721;48.852;9.936;2022-10-13T03:19:23;6.60;99.90
47961;DHT22;33721;48.852;9.936;2022-10-13T03:21:49;6.70;99.90
47961;DHT22;33721;48.852;9.936;2022-10-13T03:24:14;6.70;99.90
47961;DHT22;33721;48.852;9.936;2022-10-13T03:26:40;6.80;99.90
47961;DHT22;33721;48.852;9.936;2022-10-13T03:29:06;6.90;99.90
47961;DHT22;33721;48.852;9.936;2022-10-13T03:31:31;6.90;99.90
47961;DHT22;33721;48.852;9.936;2022-10-13T03:33:57;6.90;99.90
47961;DHT22;33721;48.852;9.936;2022-10-13T03:36:22;6.90;99.90
47961;DHT22;33721;48.852;9.936;2022-10-13T03:38:48;7.00;99.90
47961;DHT22;33721;48.852;9.936;2022-10-13T03:41:16;7.10;99.90
47961;DHT22;33721;48.852;9.936;2022-10-13T03:43:43;7.20;99.90
47961;DHT22;33721;48.852;9.936;2022-10-13T03:46:11;7.20;99.90
47961;DHT22;33721;48.852;9.936;2022-10-13T03:48:38;7.30;99.90
47961;DHT22;33721;48.852;9.936;2022-10-13T03:51:11;7.30;99.90
47961;DHT22;33721;48.852;9.936;2022-10-13T03:53:37;7.30;99.90
47961;DHT22;33721;48.852;9.936;2022-10-13T03:56:04;7.30;99.90
47961;DHT22;33721;48.852;9.936;2022-10-13T03:58:30;7.40;99.90
47961;DHT22;33721;48.852;9.936;2022-10-13T04:00:56;7.40;99.90
47961;DHT22;33721;48.852;9.936;2022-10-13T04:03:22;7.50;99.90
47961;DHT22;33721;48.852;9.936;2022-10-13T04:05:49;7.50;99.90
47961;DHT22;33721;48.852;9.936;2022-10-13T04:08:15;7.60;99.90
47961;DHT22;33721;48.852;9.936;2022-10-13T04:10:41;7.60;99.90
47961;DHT22;33721;48.852;9.936;2022-10-13T04:13:07;7.60;99.90
47961;DHT22;33721;48.852;9.936;2022-10-13T04:15:37;7.60;99.90
47961;DHT22;33721;48.852;9.936;2022-10-13T04:18:04;7.60;99.90
47961;DHT22;33721;48.852;9.936;2022-10-13T04:20:30;7.70;99.90
47961;DHT22;33721;48.852;9.936;2022-10-13T04:22:55;7.70;99.90
47961;DHT22;33721;48.852;9.936;2022-10-13T04:25:21;7.70;99.90
47961;DHT22;33721;48.852;9.936;2022-10-13T04:27:46;7.70;99.90
47961;DHT22;33721;48.852;9.936;2022-10-13T04:30:13;7.70;99.90
47961;DHT22;33721;48.852;9.936;2022-10-13T04:32:38;7.80;99.90
47961;DHT22;33721;48.852;9.936;2022-10-13T04:35:04;7.90;99.90
47961;DHT22;33721;48.852;9.936;2022-10-13T04:37:30;8.00;99.90
47961;DHT22;33721;48.852;9.936;2022-10-13T04:39:56;8.10;99.90
47961;DHT22;33721;48.852;9.936;2022-10-13T04:42:22;8.20;99.90
47961;DHT22;33721;48.852;9.936;2022-10-13T04:44:47;8.30;99.90
47961;DHT22;33721;48.852;9.936;2022-10-13T04:47:13;8.30;99.90
47961;DHT22;33721;48.852;9.936;2022-10-13T04:49:39;8.40;99.90
47961;DHT22;33721;48.852;9.936;2022-10-13T04:52:04;8.40;99.90
47961;DHT22;33721;48.852;9.936;2022-10-13T04:54:30;8.30;99.90
47961;DHT22;33721;48.852;9.936;2022-10-13T04:56:55;8.40;99.90
47961;DHT22;33721;48.852;9.936;2022-10-13T04:59:21;8.40;99.90
47961;DHT22;33721;48.852;9.936;2022-10-13T05:01:47;8.40;99.90
47961;DHT22;33721;48.852;9.936;2022-10-13T05:04:12;8.30;99.90
47961;DHT22;33721;48.852;9.936;2022-10-13T05:06:40;8.30;99.90
47961;DHT22;33721;48.852;9.936;2022-10-13T05:09:06;8.30;99.90
47961;DHT22;33721;48.852;9.936;2022-10-13T05:11:31;8.40;99.90
47961;DHT22;33721;48.852;9.936;2022-10-13T05:13:58;8.40;99.90
47961;DHT22;33721;48.852;9.936;2022-10-13T05:16:24;8.40;99.90
47961;DHT22;33721;48.852;9.936;2022-10-13T05:18:51;8.40;99.90
47961;DHT22;33721;48.852;9.936;2022-10-13T05:21:24;8.40;99.90
47961;DHT22;33721;48.852;9.936;2022-10-13T05:23:50;8.50;99.90
47961;DHT22;33721;48.852;9.936;2022-10-13T05:26:19;8.40;99.90
47961;DHT22;33721;48.852;9.936;2022-10-13T05:28:44;8.40;99.90
47961;DHT22;33721;48.852;9.936;2022-10-13T05:31:17;8.40;99.90
47961;DHT22;33721;48.852;9.936;2022-10-13T05:33:44;8.50;99.90
47961;DHT22;33721;48.852;9.936;2022-10-13T05:36:15;8.50;99.90
47961;DHT22;33721;48.852;9.936;2022-10-13T05:38:41;8.50;99.90
47961;DHT22;33721;48.852;9.936;2022-10-13T05:41:10;8.50;99.90
47961;DHT22;33721;48.852;9.936;2022-10-13T05:43:37;8.50;99.90
47961;DHT22;33721;48.852;9.936;2022-10-13T05:46:04;8.60;99.90
47961;DHT22;33721;48.852;9.936;2022-10-13T05:48:30;8.60;99.90
47961;DHT22;33721;48.852;9.936;2022-10-13T05:50:58;8.70;99.90
47961;DHT22;33721;48.852;9.936;2022-10-13T05:53:27;8.80;99.90
47961;DHT22;33721;48.852;9.936;2022-10-13T05:55:55;8.90;99.90
47961;DHT22;33721;48.852;9.936;2022-10-13T05:58:23;9.10;99.90
47961;DHT22;33721;48.852;9.936;2022-10-13T06:00:49;9.10;99.90
47961;DHT22;33721;48.852;9.936;2022-10-13T06:03:19;9.20;99.90
47961;DHT22;33721;48.852;9.936;2022-10-13T06:05:47;9.30;99.90
47961;DHT22;33721;48.852;9.936;2022-10-13T06:08:13;9.40;99.90
47961;DHT22;33721;48.852;9.936;2022-10-13T06:10:41;9.50;99.90
47961;DHT22;33721;48.852;9.936;2022-10-13T06:13:07;9.60;99.90
47961;DHT22;33721;48.852;9.936;2022-10-13T06:15:33;9.70;99.90
47961;DHT22;33721;48.852;9.936;2022-10-13T06:17:58;9.80;99.90
47961;DHT22;33721;48.852;9.936;2022-10-13T06:20:24;9.90;99.90
47961;DHT22;33721;48.852;9.936;2022-10-13T06:22:53;9.80;99.90
47961;DHT22;33721;48.852;9.936;2022-10-13T06:25:19;9.80;99.90
47961;DHT22;33721;48.852;9.936;2022-10-13T06:27:45;9.90;99.90
47961;DHT22;33721;48.852;9.936;2022-10-13T06:30:10;10.00;99.90
47961;DHT22;33721;48.852;9.936;2022-10-13T06:32:36;9.90;99.90
47961;DHT22;33721;48.852;9.936;2022-10-13T06:35:03;9.70;99.90
47961;DHT22;33721;48.852;9.936;2022-10-13T06:37:29;9.60;99.90
47961;DHT22;33721;48.852;9.936;2022-10-13T06:39:55;9.60;99.90
47961;DHT22;33721;48.852;9.936;2022-10-13T06:42:21;9.80;99.90
47961;DHT22;33721;48.852;9.936;2022-10-13T06:44:46;9.80;99.90
47961;DHT22;33721;48.852;9.936;2022-10-13T06:47:12;9.80;99.90
47961;DHT22;33721;48.852;9.936;2022-10-13T06:49:38;9.90;99.90
47961;DHT22;33721;48.852;9.936;2022-10-13T06:52:04;10.00;99.90
47961;DHT22;33721;48.852;9.936;2022-10-13T06:54:30;10.20;99.90
47961;DHT22;33721;48.852;9.936;2022-10-13T06:56:56;10.30;99.90
47961;DHT22;33721;48.852;9.936;2022-10-13T06:59:22;10.40;99.90
47961;DHT22;33721;48.852;9.936;2022-10-13T07:01:48;10.60;99.90
47961;DHT22;33721;48.852;9.936;2022-10-13T07:04:15;10.70;99.90
47961;DHT22;33721;48.852;9.936;2022-10-13T07:06:40;10.80;99.90
47961;DHT22;33721;48.852;9.936;2022-10-13T07:09:08;10.80;99.90
47961;DHT22;33721;48.852;9.936;2022-10-13T07:11:34;10.70;99.90
47961;DHT22;33721;48.852;9.936;2022-10-13T07:14:00;10.70;99.90
47961;DHT22;33721;48.852;9.936;2022-10-13T07:16:26;10.70;99.90
47961;DHT22;33721;48.852;9.936;2022-10-13T07:18:51;10.60;99.90
47961;DHT22;33721;48.852;9.936;2022-10-13T07:21:17;10.50;99.90
47961;DHT22;33721;48.852;9.936;2022-10-13T07:23:43;10.60;99.90
47961;DHT22;33721;48.852;9.936;2022-10-13T07:26:12;10.70;99.90
47961;DHT22;33721;48.852;9.936;2022-10-13T07:28:38;10.70;99.90
47961;DHT22;33721;48.852;9.936;2022-10-13T07:31:09;10.90;99.90
47961;DHT22;33721;48.852;9.936;2022-10-13T07:33:36;11.00;99.90
47961;DHT22;33721;48.852;9.936;2022-10-13T07:36:02;11.20;99.90
47961;DHT22;33721;48.852;9.936;2022-10-13T07:38:28;11.10;99.90
47961;DHT22;33721;48.852;9.936;2022-10-13T07:40:54;11.20;99.90
47961;DHT22;33721;48.852;9.936;2022-10-13T07:43:19;11.30;99.90
47961;DHT22;33721;48.852;9.936;2022-10-13T07:45:45;11.40;99.90
47961;DHT22;33721;48.852;9.936;2022-10-13T07:48:11;11.50;99.90
47961;DHT22;33721;48.852;9.936;2022-10-13T07:50:36;11.60;99.90
47961;DHT22;33721;48.852;9.936;2022-10-13T07:53:02;11.70;99.90
47961;DHT22;33721;48.852;9.936;2022-10-13T07:55:28;11.70;99.90
47961;DHT22;33721;48.852;9.936;2022-10-13T07:57:54;11.80;99.90
47961;DHT22;33721;48.852;9.936;2022-10-13T08:00:19;11.90;99.90
47961;DHT22;33721;48.852;9.936;2022-10-13T08:02:48;12.00;99.90
47961;DHT22;33721;48.852;9.936;2022-10-13T08:05:15;12.20;99.90
47961;DHT22;33721;48.852;9.936;2022-10-13T08:07:40;12.40;99.90
47961;DHT22;33721;48.852;9.936;2022-10-13T08:10:07;12.50;99.90
47961;DHT22;33721;48.852;9.936;2022-10-13T08:12:34;12.60;99.90
47961;DHT22;33721;48.852;9.936;2022-10-13T08:15:01;12.70;99.90
47961;DHT22;33721;48.852;9.936;2022-10-13T08:17:26;12.80;99.90
47961;DHT22;33721;48.852;9.936;2022-10-13T08:19:52;12.90;99.90
47961;DHT22;33721;48.852;9.936;2022-10-13T08:22:18;12.90;99.90
47961;DHT22;33721;48.852;9.936;2022-10-13T08:24:43;12.90;99.90
47961;DHT22;33721;48.852;9.936;2022-10-13T08:27:18;13.00;99.90
47961;DHT22;33721;48.852;9.936;2022-10-13T08:29:45;12.80;99.90
47961;DHT22;33721;48.852;9.936;2022-10-13T08:32:11;12.80;99.90
47961;DHT22;33721;48.852;9.936;2022-10-13T08:34:36;12.90;99.90
47961;DHT22;33721;48.852;9.936;2022-10-13T08:37:02;12.90;99.90
47961;DHT22;33721;48.852;9.936;2022-10-13T08:39:28;13.00;99.90
47961;DHT22;33721;48.852;9.936;2022-10-13T08:41:54;13.10;99.90
47961;DHT22;33721;48.852;9.936;2022-10-13T08:44:38;13.20;99.90
47961;DHT22;33721;48.852;9.936;2022-10-13T08:47:18;13.30;99.90
47961;DHT22;33721;48.852;9.936;2022-10-13T08:49:44;13.50;99.90
47961;DHT22;33721;48.852;9.936;2022-10-13T08:52:21;13.60;99.90
47961;DHT22;33721;48.852;9.936;2022-10-13T08:54:49;13.80;99.90
47961;DHT22;33721;48.852;9.936;2022-10-13T08:57:15;14.10;99.90
47961;DHT22;33721;48.852;9.936;2022-10-13T08:59:41;14.40;99.90
47961;DHT22;33721;48.852;9.936;2022-10-13T09:02:24;14.60;99.90
47961;DHT22;33721;48.852;9.936;2022-10-13T09:04:55;14.70;99.90
47961;DHT22;33721;48.852;9.936;2022-10-13T09:07:34;14.80;99.90
47961;DHT22;33721;48.852;9.936;2022-10-13T09:10:02;14.80;99.90
47961;DHT22;33721;48.852;9.936;2022-10-13T09:12:27;14.70;99.90
47961;DHT22;33721;48.852;9.936;2022-10-13T09:15:04;14.60;99.90
47961;DHT22;33721;48.852;9.936;2022-10-13T09:17:31;14.50;99.90
47961;DHT22;33721;48.852;9.936;2022-10-13T09:19:59;14.50;99.90
47961;DHT22;33721;48.852;9.936;2022-10-13T09:22:38;14.50;99.90
47961;DHT22;33721;48.852;9.936;2022-10-13T09:27:56;14.40;99.90
47961;DHT22;33721;48.852;9.936;2022-10-13T09:30:32;14.60;99.90
47961;DHT22;33721;48.852;9.936;2022-10-13T09:35:35;14.70;99.90
47961;DHT22;33721;48.852;9.936;2022-10-13T09:38:05;14.70;99.90
47961;DHT22;33721;48.852;9.936;2022-10-13T09:40:32;14.80;99.90
47961;DHT22;33721;48.852;9.936;2022-10-13T09:43:00;14.80;99.90
47961;DHT22;33721;48.852;9.936;2022-10-13T09:45:26;14.80;99.90
47961;DHT22;33721;48.852;9.936;2022-10-13T09:47:57;14.80;99.90
47961;DHT22;33721;48.852;9.936;2022-10-13T09:50:26;14.80;99.90
47961;DHT22;33721;48.852;9.936;2022-10-13T09:52:53;14.80;99.90
47961;DHT22;33721;48.852;9.936;2022-10-13T09:55:41;14.80;99.90
47961;DHT22;33721;48.852;9.936;2022-10-13T09:58:21;14.80;99.90
47961;DHT22;33721;48.852;9.936;2022-10-13T10:00:50;14.90;99.90
47961;DHT22;33721;48.852;9.936;2022-10-13T10:03:28;15.00;99.90
47961;DHT22;33721;48.852;9.936;2022-10-13T10:06:05;15.10;99.90
47961;DHT22;33721;48.852;9.936;2022-10-13T10:11:28;15.30;99.90
47961;DHT22;33721;48.852;9.936;2022-10-13T10:13:56;15.50;99.90
47961;DHT22;33721;48.852;9.936;2022-10-13T10:16:29;15.60;99.90
47961;DHT22;33721;48.852;9.936;2022-10-13T10:24:47;15.80;99.90
47961;DHT22;33721;48.852;9.936;2022-10-13T10:27:20;15.80;99.90
47961;DHT22;33721;48.852;9.936;2022-10-13T10:29:56;15.70;99.90
47961;DHT22;33721;48.852;9.936;2022-10-13T10:44:06;15.60;99.90
47961;DHT22;33721;48.852;9.936;2022-10-13T10:46:38;15.60;99.90
47961;DHT22;33721;48.852;9.936;2022-10-13T10:49:18;15.60;99.90
47961;DHT22;33721;48.852;9.936;2022-10-13T10:51:45;15.50;99.90
47961;DHT22;33721;48.852;9.936;2022-10-13T10:54:51;15.50;99.90
47961;DHT22;33721;48.852;9.936;2022-10-13T10:57:22;15.40;99.90
47961;DHT22;33721;48.852;9.936;2022-10-13T10:59:59;15.40;99.90
47961;DHT22;33721;48.852;9.936;2022-10-13T11:05:13;15.40;99.90
47961;DHT22;33721;48.852;9.936;2022-10-13T11:10:16;15.40;99.90
47961;DHT22;33721;48.852;9.936;2022-10-13T11:15:15;15.60;99.90
47961;DHT22;33721;48.852;9.936;2022-10-13T11:17:45;15.70;99.90
47961;DHT22;33721;48.852;9.936;2022-10-13T11:25:40;15.70;99.90
47961;DHT22;33721;48.852;9.936;2022-10-13T11:39:34;15.80;99.90
47961;DHT22;33721;48.852;9.936;2022-10-13T11:44:52;15.80;99.90
47961;DHT22;33721;48.852;9.936;2022-10-13T11:47:34;15.70;99.90
47961;DHT22;33721;48.852;9.936;2022-10-13T11:50:28;15.70;99.90
47961;DHT22;33721;48.852;9.936;2022-10-13T11:53:10;15.70;99.90
47961;DHT22;33721;48.852;9.936;2022-10-13T11:55:56;15.60;99.90
47961;DHT22;33721;48.852;9.936;2022-10-13T11:58:24;15.40;99.90
47961;DHT22;33721;48.852;9.936;2022-10-13T12:03:21;15.40;99.90
47961;DHT22;33721;48.852;9.936;2022-10-13T12:05:47;15.40;99.90
47961;DHT22;33721;48.852;9.936;2022-10-13T12:08:14;15.40;99.90
47961;DHT22;33721;48.852;9.936;2022-10-13T12:10:40;15.50;99.90
47961;DHT22;33721;48.852;9.936;2022-10-13T12:13:06;15.50;99.90
47961;DHT22;33721;48.852;9.936;2022-10-13T12:15:36;15.60;99.90
47961;DHT22;33721;48.852;9.936;2022-10-13T12:18:18;15.70;99.90
47961;DHT22;33721;48.852;9.936;2022-10-13T12:20:54;15.70;99.90
47961;DHT22;33721;48.852;9.936;2022-10-13T12:23:20;15.70;99.90
47961;DHT22;33721;48.852;9.936;2022-10-13T12:25:47;15.80;99.90
47961;DHT22;33721;48.852;9.936;2022-10-13T12:28:19;15.70;99.90
47961;DHT22;33721;48.852;9.936;2022-10-13T12:30:53;15.70;99.90
47961;DHT22;33721;48.852;9.936;2022-10-13T12:33:31;15.80;99.90
47961;DHT22;33721;48.852;9.936;2022-10-13T12:36:16;15.80;99.90
47961;DHT22;33721;48.852;9.936;2022-10-13T12:38:47;15.70;99.90
47961;DHT22;33721;48.852;9.936;2022-10-13T12:41:17;15.70;99.90
47961;DHT22;33721;48.852;9.936;2022-10-13T12:43:44;15.80;99.90
47961;DHT22;33721;48.852;9.936;2022-10-13T12:46:10;15.70;99.90
47961;DHT22;33721;48.852;9.936;2022-10-13T12:48:37;15.60;99.90
47961;DHT22;33721;48.852;9.936;2022-10-13T12:51:15;15.60;99.90
47961;DHT22;33721;48.852;9.936;2022-10-13T12:53:41;15.60;99.90
47961;DHT22;33721;48.852;9.936;2022-10-13T12:56:26;15.60;99.90
47961;DHT22;33721;48.852;9.936;2022-10-13T12:58:53;15.60;99.90
47961;DHT22;33721;48.852;9.936;2022-10-13T13:01:32;15.60;99.90
47961;DHT22;33721;48.852;9.936;2022-10-13T13:06:52;15.80;99.90
47961;DHT22;33721;48.852;9.936;2022-10-13T13:09:33;16.00;99.90
47961;DHT22;33721;48.852;9.936;2022-10-13T13:14:48;16.20;99.90
47961;DHT22;33721;48.852;9.936;2022-10-13T13:19:46;16.30;99.90
47961;DHT22;33721;48.852;9.936;2022-10-13T13:22:12;16.40;99.90
47961;DHT22;33721;48.852;9.936;2022-10-13T13:24:39;16.50;99.90
47961;DHT22;33721;48.852;9.936;2022-10-13T13:27:24;16.70;99.90
47961;DHT22;33721;48.852;9.936;2022-10-13T13:29:54;16.80;99.90
47961;DHT22;33721;48.852;9.936;2022-10-13T13:32:22;16.80;99.90
47961;DHT22;33721;48.852;9.936;2022-10-13T13:34:49;16.80;99.90
47961;DHT22;33721;48.852;9.936;2022-10-13T13:37:28;16.90;99.90
47961;DHT22;33721;48.852;9.936;2022-10-13T13:39:55;17.10;99.90
47961;DHT22;33721;48.852;9.936;2022-10-13T13:42:20;17.00;99.90
47961;DHT22;33721;48.852;9.936;2022-10-13T13:44:46;17.10;99.90
47961;DHT22;33721;48.852;9.936;2022-10-13T13:47:19;17.20;99.90
47961;DHT22;33721;48.852;9.936;2022-10-13T13:49:45;17.20;99.90
47961;DHT22;33721;48.852;9.936;2022-10-13T13:52:11;17.30;99.90
47961;DHT22;33721;48.852;9.936;2022-10-13T13:54:37;17.40;99.90
47961;DHT22;33721;48.852;9.936;2022-10-13T13:57:03;17.60;99.90
47961;DHT22;33721;48.852;9.936;2022-10-13T13:59:29;17.60;99.90
47961;DHT22;33721;48.852;9.936;2022-10-13T14:01:54;17.40;99.90
47961;DHT22;33721;48.852;9.936;2022-10-13T14:04:20;17.20;99.90
47961;DHT22;33721;48.852;9.936;2022-10-13T14:06:46;17.30;99.90
47961;DHT22;33721;48.852;9.936;2022-10-13T14:09:11;17.30;99.90
47961;DHT22;33721;48.852;9.936;2022-10-13T14:11:37;17.50;99.90
47961;DHT22;33721;48.852;9.936;2022-10-13T14:14:02;17.50;99.90
47961;DHT22;33721;48.852;9.936;2022-10-13T14:16:28;17.40;99.90
47961;DHT22;33721;48.852;9.936;2022-10-13T14:18:55;17.20;99.90
47961;DHT22;33721;48.852;9.936;2022-10-13T14:21:21;17.10;99.90
47961;DHT22;33721;48.852;9.936;2022-10-13T14:23:47;17.00;99.90
47961;DHT22;33721;48.852;9.936;2022-10-13T14:26:13;17.00;99.90
47961;DHT22;33721;48.852;9.936;2022-10-13T14:28:42;17.00;99.90
47961;DHT22;33721;48.852;9.936;2022-10-13T14:31:09;17.00;99.90
47961;DHT22;33721;48.852;9.936;2022-10-13T14:33:35;16.90;99.90
47961;DHT22;33721;48.852;9.936;2022-10-13T14:36:02;17.00;99.90
47961;DHT22;33721;48.852;9.936;2022-10-13T14:38:29;17.00;99.90
47961;DHT22;33721;48.852;9.936;2022-10-13T14:41:02;17.10;99.90
47961;DHT22;33721;48.852;9.936;2022-10-13T14:43:28;17.10;99.90
47961;DHT22;33721;48.852;9.936;2022-10-13T14:45:55;17.10;99.90
47961;DHT22;33721;48.852;9.936;2022-10-13T14:48:21;17.00;99.90
47961;DHT22;33721;48.852;9.936;2022-10-13T14:50:47;17.00;99.90
47961;DHT22;33721;48.852;9.936;2022-10-13T14:53:12;16.90;99.90
47961;DHT22;33721;48.852;9.936;2022-10-13T14:55:44;16.80;99.90
47961;DHT22;33721;48.852;9.936;2022-10-13T14:58:10;16.70;99.90
47961;DHT22;33721;48.852;9.936;2022-10-13T15:00:37;16.60;99.90
47961;DHT22;33721;48.852;9.936;2022-10-13T15:03:03;16.50;99.90
47961;DHT22;33721;48.852;9.936;2022-10-13T15:05:29;16.50;99.90
47961;DHT22;33721;48.852;9.936;2022-10-13T15:07:54;16.40;99.90
47961;DHT22;33721;48.852;9.936;2022-10-13T15:10:20;16.30;99.90
47961;DHT22;33721;48.852;9.936;2022-10-13T15:12:46;16.20;99.90
47961;DHT22;33721;48.852;9.936;2022-10-13T15:15:11;16.10;99.90
47961;DHT22;33721;48.852;9.936;2022-10-13T15:17:37;16.10;99.90
47961;DHT22;33721;48.852;9.936;2022-10-13T15:20:04;16.00;99.90
47961;DHT22;33721;48.852;9.936;2022-10-13T15:22:30;15.90;99.90
47961;DHT22;33721;48.852;9.936;2022-10-13T15:24:56;15.90;99.90
47961;DHT22;33721;48.852;9.936;2022-10-13T15:27:22;15.90;99.90
47961;DHT22;33721;48.852;9.936;2022-10-13T15:29:48;15.80;99.90
47961;DHT22;33721;48.852;9.936;2022-10-13T15:32:16;15.80;99.90
47961;DHT22;33721;48.852;9.936;2022-10-13T15:34:43;15.80;99.90
47961;DHT22;33721;48.852;9.936;2022-10-13T15:37:09;15.80;99.90
47961;DHT22;33721;48.852;9.936;2022-10-13T15:39:35;15.70;99.90
47961;DHT22;33721;48.852;9.936;2022-10-13T15:42:01;15.70;99.90
47961;DHT22;33721;48.852;9.936;2022-10-13T15:44:27;15.70;99.90
47961;DHT22;33721;48.852;9.936;2022-10-13T15:46:53;15.60;99.90
47961;DHT22;33721;48.852;9.936;2022-10-13T15:49:25;15.60;99.90
47961;DHT22;33721;48.852;9.936;2022-10-13T15:51:50;15.50;99.90
47961;DHT22;33721;48.852;9.936;2022-10-13T15:54:16;15.40;99.90
47961;DHT22;33721;48.852;9.936;2022-10-13T15:56:43;15.30;99.90
47961;DHT22;33721;48.852;9.936;2022-10-13T15:59:09;15.30;99.90
47961;DHT22;33721;48.852;9.936;2022-10-13T16:01:34;15.20;99.90
47961;DHT22;33721;48.852;9.936;2022-10-13T16:04:00;15.20;99.90
47961;DHT22;33721;48.852;9.936;2022-10-13T16:06:26;15.10;99.90
47961;DHT22;33721;48.852;9.936;2022-10-13T16:08:51;15.10;99.90
47961;DHT22;33721;48.852;9.936;2022-10-13T16:11:19;15.10;99.90
47961;DHT22;33721;48.852;9.936;2022-10-13T16:13:47;15.00;99.90
47961;DHT22;33721;48.852;9.936;2022-10-13T16:16:13;14.90;99.90
47961;DHT22;33721;48.852;9.936;2022-10-13T16:18:39;14.80;99.90
47961;DHT22;33721;48.852;9.936;2022-10-13T16:21:14;14.70;99.90
47961;DHT22;33721;48.852;9.936;2022-10-13T16:23:40;14.70;99.90
47961;DHT22;33721;48.852;9.936;2022-10-13T16:26:06;14.70;99.90
47961;DHT22;33721;48.852;9.936;2022-10-13T16:28:32;14.70;99.90
47961;DHT22;33721;48.852;9.936;2022-10-13T16:31:07;14.60;99.90
47961;DHT22;33721;48.852;9.936;2022-10-13T16:33:37;14.60;99.90
47961;DHT22;33721;48.852;9.936;2022-10-13T16:36:08;14.60;99.90
47961;DHT22;33721;48.852;9.936;2022-10-13T16:38:34;14.60;99.90
47961;DHT22;33721;48.852;9.936;2022-10-13T16:41:05;14.60;99.90
47961;DHT22;33721;48.852;9.936;2022-10-13T16:43:31;14.60;99.90
47961;DHT22;33721;48.852;9.936;2022-10-13T16:45:59;14.60;99.90
47961;DHT22;33721;48.852;9.936;2022-10-13T16:48:25;14.60;99.90
47961;DHT22;33721;48.852;9.936;2022-10-13T16:50:50;14.50;99.90
47961;DHT22;33721;48.852;9.936;2022-10-13T16:53:16;14.50;99.90
47961;DHT22;33721;48.852;9.936;2022-10-13T16:55:42;14.40;99.90
47961;DHT22;33721;48.852;9.936;2022-10-13T16:58:08;14.40;99.90
47961;DHT22;33721;48.852;9.936;2022-10-13T17:00:35;14.30;99.90
47961;DHT22;33721;48.852;9.936;2022-10-13T17:03:01;14.20;99.90
47961;DHT22;33721;48.852;9.936;2022-10-13T17:05:27;14.20;99.90
47961;DHT22;33721;48.852;9.936;2022-10-13T17:07:52;14.20;99.90
47961;DHT22;33721;48.852;9.936;2022-10-13T17:10:18;14.20;99.90
47961;DHT22;33721;48.852;9.936;2022-10-13T17:12:44;14.20;99.90
47961;DHT22;33721;48.852;9.936;2022-10-13T17:15:10;14.20;99.90
47961;DHT22;33721;48.852;9.936;2022-10-13T17:17:36;14.20;99.90